Time;durP1;ratioP1;P1;durP2;ratioP2;P2;SDS_P1;SDS_P2;PMS_P1;PMS_P2;Temp;Humidity;BMP_temperature;BMP_pressure;BME280_temperature;BME280_humidity;BME280_pressure;Samples;Min_cycle;Max_cycle;Signal;HPM_P1;HPM_P2
2022/04/20 00:01:11;;;;;;;8.57;5.10;;;8.30;49.10;;;;;;5005146;28;20173;-59
2022/04/20 00:03:38;;;;;;;9.20;5.10;;;8.20;49.20;;;;;;5002941;28;20179;-58
2022/04/20 00:06:04;;;;;;;9.30;4.70;;;8.20;49.30;;;;;;4986088;28;20204;-58
2022/04/20 00:08:30;;;;;;;5.80;4.60;;;8.20;49.40;;;;;;5004297;28;20424;-58
2022/04/20 00:10:56;;;;;;;7.50;5.30;;;8.20;49.40;;;;;;5001989;28;20926;-59
2022/04/20 00:13:22;;;;;;;6.83;4.90;;;8.20;49.50;;;;;;5000227;28;20439;-58
2022/04/20 00:15:47;;;;;;;7.40;5.00;;;8.20;49.50;;;;;;4998495;28;20482;-59
2022/04/20 00:18:13;;;;;;;8.50;5.43;;;8.20;49.60;;;;;;5005424;28;20201;-58
2022/04/20 00:20:38;;;;;;;10.40;5.07;;;8.10;49.60;;;;;;4997624;28;20212;-57
2022/04/20 00:23:04;;;;;;;10.37;5.10;;;8.10;49.90;;;;;;5001123;28;20210;-59
2022/04/20 00:25:30;;;;;;;8.23;4.90;;;8.00;50.00;;;;;;4987184;28;20195;-58
2022/04/20 00:27:55;;;;;;;9.07;5.03;;;8.00;50.00;;;;;;5004854;28;20232;-58
2022/04/20 00:30:21;;;;;;;10.33;5.17;;;8.00;50.10;;;;;;4997709;28;20181;-59
2022/04/20 00:32:47;;;;;;;8.47;4.50;;;7.90;50.10;;;;;;4984161;28;20250;-58
2022/04/20 00:35:12;;;;;;;7.57;4.57;;;7.90;50.20;;;;;;5003091;28;20185;-58
2022/04/20 00:37:43;;;;;;;6.93;4.07;;;7.80;50.30;;;;;;5000788;28;20196;-59
2022/04/20 00:40:10;;;;;;;6.10;4.60;;;7.80;50.40;;;;;;4998806;28;20181;-59
2022/04/20 00:42:39;;;;;;;9.20;5.20;;;7.70;50.60;;;;;;4999067;28;20432;-59
2022/04/20 00:45:07;;;;;;;5.67;4.97;;;7.70;50.70;;;;;;5003537;28;21180;-57
2022/04/20 00:47:34;;;;;;;7.13;4.50;;;7.70;50.80;;;;;;5000034;28;20428;-58
2022/04/20 00:50:00;;;;;;;5.73;4.90;;;7.60;51.20;;;;;;4999210;28;20511;-59
2022/04/20 00:52:26;;;;;;;6.20;4.80;;;7.60;51.10;;;;;;5001503;28;20570;-58
2022/04/20 00:54:52;;;;;;;6.57;5.50;;;7.50;51.20;;;;;;4998327;28;20271;-58
2022/04/20 00:57:17;;;;;;;5.87;4.93;;;7.50;51.40;;;;;;5002297;28;20223;-58
2022/04/20 00:59:44;;;;;;;6.57;5.23;;;7.40;51.40;;;;;;4985848;28;20184;-58
2022/04/20 01:02:09;;;;;;;10.50;5.70;;;7.40;51.70;;;;;;4998289;28;20239;-58
2022/04/20 01:04:35;;;;;;;6.00;4.70;;;7.40;51.80;;;;;;4999060;28;20491;-59
2022/04/20 01:07:12;;;;;;;7.60;5.30;;;7.30;51.70;;;;;;4999781;28;20176;-58
2022/04/20 01:09:40;;;;;;;6.60;5.10;;;7.30;52.20;;;;;;4987340;28;20181;-58
2022/04/20 01:12:06;;;;;;;8.10;5.03;;;7.20;51.90;;;;;;5001892;28;20955;-58
2022/04/20 01:14:32;;;;;;;6.30;4.80;;;7.20;51.90;;;;;;5000823;28;20427;-59
2022/04/20 01:16:58;;;;;;;10.90;4.80;;;7.10;52.00;;;;;;5002845;28;20431;-59
2022/04/20 01:19:32;;;;;;;7.23;5.40;;;7.10;52.10;;;;;;5001904;28;20564;-57
2022/04/20 01:21:58;;;;;;;11.77;7.10;;;7.00;52.20;;;;;;5002546;28;20704;-58
2022/04/20 01:24:23;;;;;;;8.83;6.50;;;7.00;52.50;;;;;;4998488;28;20541;-59
2022/04/20 01:26:49;;;;;;;8.50;5.33;;;6.90;52.50;;;;;;5002008;28;20185;-59
2022/04/20 01:29:16;;;;;;;11.90;5.37;;;6.90;52.60;;;;;;5001714;28;20171;-58
2022/04/20 01:31:42;;;;;;;13.00;5.10;;;6.90;52.70;;;;;;5003042;28;20188;-58
2022/04/20 01:34:07;;;;;;;7.87;5.57;;;6.90;52.90;;;;;;4984828;28;20424;-58
2022/04/20 01:36:33;;;;;;;4.90;4.40;;;6.80;52.90;;;;;;5002011;28;20888;-58
2022/04/20 01:38:58;;;;;;;8.33;5.13;;;6.80;53.10;;;;;;4982493;28;20288;-58
2022/04/20 01:41:24;;;;;;;7.70;5.13;;;6.80;53.10;;;;;;5000628;28;20176;-58
2022/04/20 01:43:50;;;;;;;5.50;5.00;;;6.80;53.10;;;;;;4999845;28;20634;-57
2022/04/20 01:46:15;;;;;;;6.50;4.83;;;6.80;53.30;;;;;;5003363;28;20207;-57
2022/04/20 01:48:41;;;;;;;8.97;5.07;;;6.70;53.30;;;;;;5002063;28;20184;-58
2022/04/20 01:53:51;;;;;;;8.10;5.70;;;6.70;53.50;;;;;;5001227;28;20211;-57
2022/04/20 01:56:17;;;;;;;8.80;5.47;;;6.70;53.60;;;;;;5002285;28;20517;-59
2022/04/20 01:58:42;;;;;;;8.40;5.10;;;6.60;53.70;;;;;;5003223;28;20183;-58
2022/04/20 02:03:52;;;;;;;8.17;5.70;;;6.60;54.00;;;;;;5002288;28;20187;-58
2022/04/20 02:06:17;;;;;;;11.37;5.70;;;6.60;54.20;;;;;;4985993;28;20415;-58
2022/04/20 02:08:43;;;;;;;10.00;5.77;;;6.60;54.20;;;;;;5001751;28;20262;-57
2022/04/20 02:11:09;;;;;;;7.13;6.00;;;6.60;54.30;;;;;;5004769;28;20200;-58
2022/04/20 02:13:34;;;;;;;6.37;5.13;;;6.60;54.20;;;;;;5002685;28;20187;-58
2022/04/20 02:16:00;;;;;;;7.53;5.17;;;6.60;54.10;;;;;;4999562;28;20187;-59
2022/04/20 02:18:26;;;;;;;6.03;5.40;;;6.50;54.00;;;;;;5000921;28;20164;-57
2022/04/20 02:20:52;;;;;;;10.07;5.70;;;6.50;54.10;;;;;;4985013;28;20276;-58
2022/04/20 02:23:18;;;;;;;5.43;4.90;;;6.50;54.20;;;;;;5002358;28;20210;-58
2022/04/20 02:25:43;;;;;;;9.47;6.40;;;6.50;54.10;;;;;;5001136;28;20471;-57
2022/04/20 02:28:09;;;;;;;13.20;6.27;;;6.40;54.20;;;;;;5001165;28;21357;-58
2022/04/20 02:30:35;;;;;;;7.90;5.40;;;6.40;54.20;;;;;;5001721;28;20188;-58
2022/04/20 02:33:00;;;;;;;7.23;5.73;;;6.40;54.30;;;;;;5002621;28;20193;-58
2022/04/20 02:35:27;;;;;;;8.70;6.67;;;6.30;54.30;;;;;;5001293;28;20188;-57
2022/04/20 02:37:53;;;;;;;6.80;5.53;;;6.30;54.20;;;;;;5001699;28;20196;-58
2022/04/20 02:40:19;;;;;;;7.80;5.20;;;6.20;54.30;;;;;;5002010;28;20527;-58
2022/04/20 02:42:46;;;;;;;6.43;5.73;;;6.20;54.40;;;;;;4985950;28;20912;-58
2022/04/20 02:45:12;;;;;;;8.30;5.47;;;6.20;54.40;;;;;;5001556;28;20463;-58
2022/04/20 02:47:38;;;;;;;9.13;6.03;;;6.20;54.40;;;;;;5010659;28;20427;-58
2022/04/20 02:50:04;;;;;;;5.63;5.07;;;6.10;54.30;;;;;;5011051;28;20422;-57
2022/04/20 02:52:29;;;;;;;9.33;6.00;;;6.10;54.30;;;;;;5008037;28;20431;-58
2022/04/20 02:54:55;;;;;;;8.07;5.23;;;6.00;54.30;;;;;;4995227;28;20272;-57
2022/04/20 02:57:20;;;;;;;9.23;5.50;;;6.00;54.40;;;;;;5000866;28;20215;-57
2022/04/20 02:59:46;;;;;;;15.93;5.87;;;6.00;54.30;;;;;;5009491;28;20808;-58
2022/04/20 03:02:12;;;;;;;8.97;5.77;;;6.00;54.20;;;;;;4995814;28;20192;-59
2022/04/20 03:04:37;;;;;;;8.33;5.70;;;6.00;54.20;;;;;;4990268;28;20184;-58
2022/04/20 03:07:03;;;;;;;8.20;5.30;;;6.00;54.10;;;;;;4997234;28;20171;-58
2022/04/20 03:09:29;;;;;;;7.10;5.53;;;6.00;54.10;;;;;;5006648;28;20272;-57
2022/04/20 03:11:54;;;;;;;6.13;5.53;;;6.00;53.80;;;;;;5011794;28;20959;-58
2022/04/20 03:14:20;;;;;;;11.60;5.77;;;6.00;53.70;;;;;;5013150;28;20524;-58
2022/04/20 03:16:46;;;;;;;11.50;5.27;;;5.90;53.80;;;;;;5011489;28;20176;-59
2022/04/20 03:19:11;;;;;;;7.23;5.77;;;5.90;53.60;;;;;;5004460;28;20168;-58
2022/04/20 03:21:37;;;;;;;7.60;6.07;;;5.90;53.30;;;;;;5000020;28;20666;-58
2022/04/20 03:24:03;;;;;;;11.20;4.50;;;5.80;53.20;;;;;;5012230;28;20198;-57
2022/04/20 03:26:29;;;;;;;6.17;5.00;;;5.80;53.00;;;;;;5009579;28;20184;-58
2022/04/20 03:28:54;;;;;;;6.20;4.93;;;5.70;52.60;;;;;;4999441;28;20419;-58
2022/04/20 03:31:20;;;;;;;6.67;5.00;;;5.70;52.40;;;;;;5010813;28;20172;-58
2022/04/20 03:33:46;;;;;;;6.10;4.40;;;5.70;52.30;;;;;;4991988;28;20173;-58
2022/04/20 03:36:11;;;;;;;9.13;4.87;;;5.70;52.10;;;;;;4993148;28;20629;-58
2022/04/20 03:38:37;;;;;;;9.40;4.97;;;5.60;52.00;;;;;;5007315;28;20180;-58
2022/04/20 03:41:04;;;;;;;6.87;4.50;;;5.70;52.30;;;;;;5007143;28;20263;-58
2022/04/20 03:43:30;;;;;;;6.30;4.40;;;5.60;52.10;;;;;;5012100;28;20319;-57
2022/04/20 03:45:56;;;;;;;10.67;4.90;;;5.60;52.00;;;;;;4988585;28;20549;-58
2022/04/20 03:48:22;;;;;;;5.70;5.00;;;5.60;52.10;;;;;;5007201;28;20173;-58
2022/04/20 03:50:48;;;;;;;5.90;4.20;;;5.60;52.00;;;;;;4996922;28;20179;-57
2022/04/20 03:53:13;;;;;;;4.70;4.10;;;5.60;51.70;;;;;;5012382;28;20992;-58
2022/04/20 03:55:39;;;;;;;5.80;4.60;;;5.60;51.70;;;;;;5002321;28;20185;-58
2022/04/20 03:58:05;;;;;;;6.50;4.90;;;5.60;51.70;;;;;;5009039;28;20574;-57
2022/04/20 04:00:31;;;;;;;7.30;4.57;;;5.50;51.70;;;;;;4993979;28;20173;-57
2022/04/20 04:02:57;;;;;;;5.67;4.50;;;5.50;51.70;;;;;;5012157;28;20526;-58
2022/04/20 04:05:23;;;;;;;6.03;4.40;;;5.50;52.00;;;;;;5007205;28;20467;-58
2022/04/20 04:07:49;;;;;;;7.10;4.67;;;5.50;51.50;;;;;;4987676;28;20185;-58
2022/04/20 04:10:15;;;;;;;5.43;4.30;;;5.50;51.50;;;;;;5006207;28;20917;-57
2022/04/20 04:12:41;;;;;;;10.93;4.27;;;5.50;51.40;;;;;;5003423;28;20204;-58
2022/04/20 04:15:07;;;;;;;4.67;3.90;;;5.60;51.30;;;;;;5004853;28;20530;-59
2022/04/20 04:17:34;;;;;;;4.53;4.10;;;5.50;51.00;;;;;;5006343;28;20465;-59
2022/04/20 04:20:00;;;;;;;8.13;4.53;;;5.50;50.80;;;;;;5001283;28;20431;-59
2022/04/20 04:22:26;;;;;;;7.43;4.63;;;5.60;50.70;;;;;;5002089;28;20463;-59
2022/04/20 04:24:52;;;;;;;6.40;4.30;;;5.60;50.50;;;;;;4988080;28;20883;-59
2022/04/20 04:27:18;;;;;;;5.07;4.20;;;5.50;50.50;;;;;;5008229;28;20506;-59
2022/04/20 04:29:43;;;;;;;5.30;4.80;;;5.50;50.40;;;;;;5006955;28;20526;-58
2022/04/20 04:32:09;;;;;;;4.90;4.17;;;5.60;50.10;;;;;;5006537;28;20268;-59
2022/04/20 04:34:35;;;;;;;4.00;3.53;;;5.50;49.50;;;;;;5001738;28;20184;-60
2022/04/20 04:37:01;;;;;;;5.47;3.80;;;5.50;49.30;;;;;;5007449;28;20693;-59
2022/04/20 04:39:30;;;;;;;5.73;3.90;;;5.60;49.10;;;;;;5009502;28;20207;-60
2022/04/20 04:42:02;;;;;;;4.00;3.60;;;5.60;49.10;;;;;;4997422;28;20210;-59
2022/04/20 04:44:29;;;;;;;3.93;3.43;;;5.60;48.80;;;;;;4996344;28;20458;-60
2022/04/20 04:49:39;;;;;;;4.33;3.93;;;5.60;48.30;;;;;;5008375;28;20470;-60
2022/04/20 04:52:11;;;;;;;3.97;3.63;;;5.60;48.20;;;;;;5004959;28;21165;-60
2022/04/20 04:54:38;;;;;;;7.00;3.23;;;5.60;47.70;;;;;;5003864;28;20171;-60
2022/04/20 04:57:06;;;;;;;3.30;3.00;;;5.70;47.90;;;;;;5007289;28;20506;-60
2022/04/20 04:59:32;;;;;;;5.00;3.50;;;5.70;47.70;;;;;;5008973;28;20431;-59
2022/04/20 05:01:57;;;;;;;7.23;3.17;;;5.70;47.60;;;;;;5003866;28;20482;-59
2022/04/20 05:04:23;;;;;;;6.63;3.97;;;5.80;47.30;;;;;;5004291;28;20456;-58
2022/04/20 05:06:48;;;;;;;4.83;3.60;;;5.90;47.00;;;;;;5006628;28;20187;-60
2022/04/20 05:09:14;;;;;;;5.13;3.20;;;5.90;46.80;;;;;;5003029;28;20177;-59
2022/04/20 05:11:40;;;;;;;4.63;3.60;;;6.00;46.50;;;;;;5011699;28;20637;-59
2022/04/20 05:14:05;;;;;;;9.10;3.60;;;6.10;46.40;;;;;;5004393;28;20177;-60
2022/04/20 05:16:31;;;;;;;8.03;3.90;;;6.20;46.20;;;;;;5000447;28;20540;-60
2022/04/20 05:18:57;;;;;;;7.83;3.03;;;6.20;45.80;;;;;;5008112;28;20181;-59
2022/04/20 05:21:23;;;;;;;3.43;2.90;;;6.30;45.60;;;;;;5003492;28;20728;-60
2022/04/20 05:23:48;;;;;;;3.30;3.00;;;6.40;45.30;;;;;;5003905;28;20307;-60
2022/04/20 05:26:14;;;;;;;6.97;3.63;;;6.50;45.20;;;;;;5009512;28;20543;-60
2022/04/20 05:28:40;;;;;;;3.57;3.20;;;6.60;44.90;;;;;;5006914;28;20217;-60
2022/04/20 05:31:06;;;;;;;10.30;3.33;;;6.70;44.90;;;;;;5002037;28;20637;-61
2022/04/20 05:33:32;;;;;;;3.70;2.93;;;6.70;44.80;;;;;;5008665;28;20192;-60
2022/04/20 05:35:57;;;;;;;7.03;3.20;;;6.80;44.80;;;;;;5002912;28;20497;-60
2022/04/20 05:44:12;;;;;;;3.70;3.00;;;7.00;43.80;;;;;;4945024;28;20921;-60
2022/04/20 05:46:39;;;;;;;4.50;2.80;;;7.10;44.10;;;;;;4956393;28;20442;-61
2022/04/20 05:49:05;;;;;;;3.33;3.03;;;7.10;43.60;;;;;;4981385;28;20435;-60
2022/04/20 05:51:31;;;;;;;3.57;3.03;;;7.20;43.70;;;;;;5010399;28;20548;-60
2022/04/20 05:53:57;;;;;;;4.10;3.20;;;7.20;43.60;;;;;;5003118;28;20929;-60
2022/04/20 05:56:23;;;;;;;7.27;3.27;;;7.30;43.70;;;;;;5003727;28;20434;-60
2022/04/20 05:58:52;;;;;;;3.37;3.07;;;7.30;43.40;;;;;;5007975;28;20427;-60
2022/04/20 06:01:18;;;;;;;6.13;3.47;;;7.30;43.40;;;;;;5008496;28;20188;-59
2022/04/20 06:03:45;;;;;;;7.13;3.03;;;7.40;43.60;;;;;;5005784;28;20435;-59
2022/04/20 06:06:11;;;;;;;4.03;3.63;;;7.50;43.20;;;;;;5007880;28;20474;-60
2022/04/20 06:08:36;;;;;;;16.30;3.33;;;7.50;42.80;;;;;;5004643;28;20436;-60
2022/04/20 06:11:02;;;;;;;5.73;3.30;;;7.50;43.00;;;;;;4998165;28;20173;-59
2022/04/20 06:13:29;;;;;;;5.53;3.83;;;7.50;42.80;;;;;;5002120;28;20304;-60
2022/04/20 06:15:55;;;;;;;4.10;3.07;;;7.40;42.70;;;;;;5005080;28;20438;-60
2022/04/20 06:18:21;;;;;;;8.90;3.40;;;7.40;42.70;;;;;;5001568;28;20535;-60
2022/04/20 06:20:47;;;;;;;3.80;2.73;;;7.50;42.80;;;;;;4979521;28;20522;-59
2022/04/20 06:23:13;;;;;;;3.03;2.73;;;7.60;42.50;;;;;;5001786;28;20482;-59
2022/04/20 06:25:39;;;;;;;2.57;2.37;;;7.70;42.60;;;;;;5000477;28;21166;-61
2022/04/20 06:28:05;;;;;;;3.47;3.17;;;7.80;42.30;;;;;;5002815;28;20506;-60
2022/04/20 06:30:31;;;;;;;4.90;2.70;;;7.90;42.00;;;;;;4999360;28;20184;-60
2022/04/20 06:32:56;;;;;;;3.53;3.23;;;7.90;42.00;;;;;;5003364;28;20200;-60
2022/04/20 06:35:22;;;;;;;4.97;2.80;;;7.90;41.80;;;;;;4999170;28;20188;-60
2022/04/20 06:37:48;;;;;;;6.43;3.27;;;8.00;41.70;;;;;;5002673;28;20180;-60
2022/04/20 06:40:15;;;;;;;7.03;3.23;;;8.10;41.60;;;;;;5003643;28;20177;-61
2022/04/20 06:42:41;;;;;;;4.80;2.90;;;8.20;41.80;;;;;;5008084;28;20924;-60
2022/04/20 06:45:07;;;;;;;4.50;2.80;;;8.30;41.70;;;;;;5003781;28;20463;-60
2022/04/20 06:47:34;;;;;;;3.83;3.13;;;8.30;41.70;;;;;;4987158;28;20439;-61
2022/04/20 06:50:00;;;;;;;3.90;2.57;;;8.40;41.50;;;;;;5008168;28;20423;-58
2022/04/20 07:00:46;;;;;;;7.23;3.10;;;8.70;41.70;;;;;;5006948;28;20486;-60
2022/04/20 07:03:12;;;;;;;8.90;3.40;;;8.70;41.50;;;;;;4991237;28;20451;-60
2022/04/20 07:05:37;;;;;;;8.53;3.07;;;8.80;41.70;;;;;;4988457;28;20258;-62
2022/04/20 07:08:03;;;;;;;3.33;2.60;;;8.80;41.60;;;;;;5005007;28;20700;-58
2022/04/20 07:10:29;;;;;;;6.97;2.73;;;8.90;41.70;;;;;;5004208;28;20168;-60
2022/04/20 07:12:55;;;;;;;11.80;2.90;;;8.90;41.70;;;;;;5006749;28;20466;-56
2022/04/20 07:15:21;;;;;;;4.00;3.20;;;8.90;41.90;;;;;;5004871;28;20303;-60
2022/04/20 07:17:46;;;;;;;3.77;3.20;;;9.00;41.60;;;;;;5004766;28;20283;-60
2022/04/20 07:20:17;;;;;;;9.40;3.03;;;9.10;41.30;;;;;;5000987;28;20181;-61
2022/04/20 07:22:54;;;;;;;4.10;3.70;;;9.10;41.70;;;;;;5003625;28;20238;-60
2022/04/20 07:25:19;;;;;;;3.77;2.97;;;9.20;41.80;;;;;;5008478;28;20562;-61
2022/04/20 07:27:48;;;;;;;4.70;3.87;;;9.30;41.70;;;;;;5008433;28;20512;-61
2022/04/20 07:30:16;;;;;;;4.70;3.23;;;9.30;41.80;;;;;;5007947;28;20504;-61
2022/04/20 07:32:42;;;;;;;6.27;3.37;;;9.30;41.90;;;;;;5010594;28;20477;-61
2022/04/20 07:35:08;;;;;;;4.47;3.17;;;9.30;41.60;;;;;;5008308;28;20525;-61
2022/04/20 07:37:33;;;;;;;2.90;2.70;;;9.30;41.50;;;;;;4999367;28;20176;-62
2022/04/20 07:39:59;;;;;;;4.03;3.00;;;9.30;41.50;;;;;;5007518;28;20459;-61
2022/04/20 07:42:25;;;;;;;4.07;3.67;;;9.40;41.20;;;;;;5007209;28;20196;-62
2022/04/20 07:44:54;;;;;;;4.83;3.30;;;9.50;40.50;;;;;;5010003;28;20258;-60
2022/04/20 07:47:22;;;;;;;6.13;4.03;;;9.60;40.50;;;;;;5009184;28;20188;-61
2022/04/20 07:52:45;;;;;;;13.93;3.70;;;9.80;40.50;;;;;;5007832;28;20454;-61
2022/04/20 07:55:12;;;;;;;3.83;3.53;;;9.90;40.70;;;;;;5005155;28;20447;-60
2022/04/20 07:57:38;;;;;;;9.67;3.17;;;10.00;39.30;;;;;;5002178;28;20436;-61
2022/04/20 08:00:05;;;;;;;9.47;4.10;;;10.10;39.30;;;;;;4985497;28;20432;-61
2022/04/20 08:02:31;;;;;;;5.60;3.50;;;10.10;38.60;;;;;;5006951;28;20193;-60
2022/04/20 08:04:57;;;;;;;4.60;2.97;;;10.20;38.40;;;;;;5001558;28;20808;-59
2022/04/20 08:07:23;;;;;;;5.60;3.30;;;10.30;38.20;;;;;;5002959;28;20169;-60
2022/04/20 08:09:48;;;;;;;3.70;3.20;;;10.40;38.40;;;;;;5004735;28;20192;-61
2022/04/20 08:12:14;;;;;;;5.50;3.70;;;10.50;38.30;;;;;;5003320;28;20588;-61
2022/04/20 08:14:39;;;;;;;3.80;3.30;;;10.50;38.80;;;;;;5003911;28;20668;-60
2022/04/20 08:17:05;;;;;;;12.57;3.80;;;10.60;39.40;;;;;;4989094;28;20537;-60
2022/04/20 08:19:31;;;;;;;3.80;3.40;;;10.60;38.90;;;;;;5008164;28;20663;-60
2022/04/20 08:21:58;;;;;;;12.27;3.90;;;10.70;38.30;;;;;;5002952;28;20726;-60
2022/04/20 08:24:24;;;;;;;4.90;3.40;;;10.70;38.10;;;;;;5008503;28;20451;-60
2022/04/20 08:26:50;;;;;;;9.87;3.37;;;10.80;38.00;;;;;;5004413;28;20423;-59
2022/04/20 08:29:15;;;;;;;5.03;3.63;;;10.90;38.20;;;;;;4981467;28;20192;-61
2022/04/20 08:31:41;;;;;;;5.47;3.13;;;11.00;38.00;;;;;;5002081;28;20205;-61
2022/04/20 08:34:07;;;;;;;3.27;2.97;;;11.10;38.40;;;;;;5004421;28;20456;-60
2022/04/20 08:36:33;;;;;;;5.13;3.23;;;11.20;38.70;;;;;;4990303;28;20177;-61
2022/04/20 08:38:59;;;;;;;3.40;3.10;;;11.20;39.10;;;;;;5006600;28;20281;-61
2022/04/20 08:41:25;;;;;;;6.27;3.33;;;11.30;38.90;;;;;;5007390;28;20470;-61
2022/04/20 08:43:52;;;;;;;7.37;3.90;;;11.30;39.10;;;;;;5007030;28;20438;-60
2022/04/20 08:46:18;;;;;;;3.10;2.90;;;11.30;38.80;;;;;;4999618;28;20216;-61
2022/04/20 08:48:44;;;;;;;5.67;3.53;;;11.40;38.80;;;;;;5005465;28;20437;-61
2022/04/20 08:51:10;;;;;;;3.37;2.83;;;11.40;38.40;;;;;;4998299;28;20503;-60
2022/04/20 08:53:36;;;;;;;4.17;2.87;;;11.50;37.80;;;;;;5002042;28;20323;-61
2022/04/20 08:58:48;;;;;;;6.40;3.93;;;11.70;37.60;;;;;;5005268;28;20449;-59
2022/04/20 09:01:16;;;;;;;4.30;3.30;;;11.80;37.90;;;;;;5005150;28;20447;-60
2022/04/20 09:03:46;;;;;;;3.83;3.17;;;11.90;38.00;;;;;;5004995;28;20442;-60
2022/04/20 09:06:15;;;;;;;3.43;3.13;;;12.00;37.90;;;;;;5002469;28;20495;-61
2022/04/20 09:08:41;;;;;;;6.07;3.60;;;12.10;38.50;;;;;;5002218;28;20448;-60
2022/04/20 09:11:07;;;;;;;3.77;3.17;;;12.20;38.30;;;;;;4996073;28;20431;-61
2022/04/20 09:13:41;;;;;;;4.30;3.30;;;12.20;38.00;;;;;;4998020;28;20462;-62
2022/04/20 09:16:08;;;;;;;10.23;3.40;;;12.30;38.20;;;;;;5000788;28;20176;-62
2022/04/20 09:18:34;;;;;;;4.67;3.20;;;12.50;36.60;;;;;;4998857;28;20463;-63
2022/04/20 09:21:10;;;;;;;6.97;3.63;;;12.50;35.40;;;;;;4996407;28;20530;-60
2022/04/20 09:23:37;;;;;;;3.30;2.90;;;12.60;35.20;;;;;;4997136;28;20443;-61
2022/04/20 09:26:15;;;;;;;3.50;3.20;;;12.70;36.10;;;;;;4999006;28;20905;-56
2022/04/20 09:29:01;;;;;;;5.63;3.50;;;12.70;34.90;;;;;;5001580;28;20478;-57
2022/04/20 09:31:47;;;;;;;3.50;3.20;;;12.80;36.00;;;;;;5003782;28;20541;-57
2022/04/20 09:34:25;;;;;;;3.10;2.80;;;12.90;35.50;;;;;;4981235;28;20529;-59
2022/04/20 09:36:54;;;;;;;3.30;3.00;;;12.90;35.80;;;;;;4993767;28;20815;-61
2022/04/20 09:39:20;;;;;;;5.87;3.10;;;13.00;35.50;;;;;;4996089;28;20968;-60
2022/04/20 09:41:58;;;;;;;3.80;3.30;;;13.10;36.50;;;;;;4998700;28;20462;-60
2022/04/20 09:44:25;;;;;;;5.60;3.83;;;13.30;36.60;;;;;;5001061;28;20462;-61
2022/04/20 09:49:58;;;;;;;4.27;3.60;;;13.50;37.20;;;;;;5003009;28;20518;-61
2022/04/20 09:52:25;;;;;;;6.57;3.80;;;13.60;36.80;;;;;;5004213;28;20511;-62
2022/04/20 09:54:54;;;;;;;6.23;4.40;;;13.70;36.00;;;;;;5003201;28;20443;-60
2022/04/20 09:57:21;;;;;;;4.50;3.73;;;13.80;35.20;;;;;;5005678;28;20462;-59
2022/04/20 09:59:57;;;;;;;10.17;3.30;;;13.80;34.80;;;;;;5002410;28;20435;-60
2022/04/20 10:02:22;;;;;;;9.10;3.50;;;13.90;34.70;;;;;;5004369;28;20458;-59
2022/04/20 10:04:48;;;;;;;6.60;3.67;;;14.00;36.00;;;;;;5001025;28;20572;-60
2022/04/20 10:07:17;;;;;;;4.10;3.70;;;14.00;35.40;;;;;;4999298;28;20188;-59
2022/04/20 10:09:43;;;;;;;5.53;4.10;;;14.10;36.20;;;;;;5003703;28;20177;-59
2022/04/20 10:12:12;;;;;;;3.90;3.50;;;14.20;35.50;;;;;;4986727;28;21044;-60
2022/04/20 10:17:30;;;;;;;5.97;3.50;;;14.50;36.30;;;;;;4995998;28;21184;-59
2022/04/20 10:19:57;;;;;;;7.53;3.57;;;14.50;36.40;;;;;;4997228;28;21239;-60
2022/04/20 10:22:25;;;;;;;4.43;3.40;;;14.50;35.80;;;;;;4993156;28;21000;-61
2022/04/20 10:24:52;;;;;;;3.80;2.87;;;14.50;35.20;;;;;;4999770;28;20451;-60
2022/04/20 10:27:43;;;;;;;6.90;3.47;;;14.60;34.50;;;;;;4996274;28;20459;-59
2022/04/20 10:30:18;;;;;;;3.83;3.43;;;14.60;36.10;;;;;;4982931;28;20439;-60
2022/04/20 10:33:13;;;;;;;5.60;3.83;;;14.70;35.70;;;;;;5011701;23;20947;-56
2022/04/20 10:36:02;;;;;;;9.03;4.57;;;14.80;36.30;;;;;;4976008;28;20584;-57
2022/04/20 10:38:31;;;;;;;4.60;3.83;;;14.90;34.60;;;;;;4994599;28;20440;-58
2022/04/20 10:41:17;;;;;;;6.20;3.87;;;15.00;35.70;;;;;;4998311;28;20423;-57
2022/04/20 10:43:43;;;;;;;6.00;3.60;;;15.10;36.10;;;;;;5002328;28;21654;-57
2022/04/20 10:46:16;;;;;;;4.77;4.10;;;15.20;36.00;;;;;;4992040;28;20478;-57
2022/04/20 10:49:00;;;;;;;4.80;4.07;;;15.20;35.00;;;;;;4994526;28;20432;-57
2022/04/20 10:51:35;;;;;;;5.87;4.70;;;15.20;35.00;;;;;;4992653;28;20419;-57
2022/04/20 10:54:23;;;;;;;7.80;4.83;;;15.30;34.70;;;;;;4994308;28;20442;-58
2022/04/20 10:57:10;;;;;;;6.10;4.10;;;15.30;34.70;;;;;;4980756;28;20445;-57
2022/04/20 10:59:39;;;;;;;8.63;4.47;;;15.40;35.00;;;;;;4998718;28;20953;-58
2022/04/20 11:02:10;;;;;;;5.10;4.60;;;15.40;34.80;;;;;;4992887;28;20527;-56
2022/04/20 11:04:39;;;;;;;5.73;4.60;;;15.50;35.00;;;;;;4979629;28;20474;-59
2022/04/20 11:07:06;;;;;;;10.50;5.03;;;15.50;35.30;;;;;;4995579;28;20470;-58
2022/04/20 11:09:52;;;;;;;6.00;4.47;;;15.60;35.50;;;;;;5002494;28;20419;-59
2022/04/20 11:21:04;;;;;;;8.40;4.80;;;15.90;34.70;;;;;;4995068;28;20791;-58
2022/04/20 11:24:05;;;;;;;7.17;4.40;;;16.00;34.40;;;;;;4999816;28;20451;-59
2022/04/20 11:26:31;;;;;;;6.53;5.00;;;16.10;35.00;;;;;;5001686;28;20692;-58
2022/04/20 11:29:23;;;;;;;5.17;4.67;;;16.20;34.00;;;;;;4986428;28;20423;-58
2022/04/20 11:32:08;;;;;;;6.60;4.60;;;16.40;34.30;;;;;;4976306;28;20193;-58
2022/04/20 11:34:41;;;;;;;5.43;4.93;;;16.50;33.60;;;;;;4987247;28;20559;-58
2022/04/20 11:37:07;;;;;;;10.30;4.63;;;16.60;33.90;;;;;;4997303;28;20422;-58
2022/04/20 11:39:34;;;;;;;4.93;4.47;;;16.70;34.20;;;;;;5007012;28;20502;-58
2022/04/20 11:42:04;;;;;;;8.47;5.67;;;16.80;34.50;;;;;;5001739;28;20523;-58
2022/04/20 11:44:41;;;;;;;4.80;4.37;;;16.90;33.90;;;;;;4993936;28;20469;-59
2022/04/20 11:47:08;;;;;;;8.77;5.10;;;16.90;33.50;;;;;;4990802;28;20510;-59
2022/04/20 11:49:39;;;;;;;6.43;5.10;;;17.10;33.50;;;;;;5009540;28;20502;-58
2022/04/20 11:52:09;;;;;;;5.53;5.00;;;17.10;33.00;;;;;;4992055;28;20424;-57
2022/04/20 11:54:36;;;;;;;6.13;4.60;;;17.20;32.10;;;;;;5004109;28;20514;-57
2022/04/20 11:57:03;;;;;;;6.60;4.60;;;17.30;33.10;;;;;;4999638;28;20991;-57
2022/04/20 11:59:29;;;;;;;12.53;5.40;;;17.50;33.60;;;;;;5006117;28;20431;-57
2022/04/20 12:01:55;;;;;;;7.33;5.13;;;17.70;33.20;;;;;;4992634;28;20992;-59
2022/04/20 12:04:27;;;;;;;6.00;4.77;;;17.80;32.50;;;;;;5009547;28;20199;-59
2022/04/20 12:06:56;;;;;;;6.73;5.03;;;17.80;32.80;;;;;;5004890;28;20492;-58
2022/04/20 12:09:24;;;;;;;8.30;4.97;;;17.90;31.80;;;;;;5008902;28;20485;-59
2022/04/20 12:11:55;;;;;;;7.57;5.47;;;18.00;30.70;;;;;;4990283;28;20978;-59
2022/04/20 12:14:23;;;;;;;5.37;4.60;;;18.00;31.50;;;;;;5007268;28;20585;-59
2022/04/20 12:16:52;;;;;;;9.17;5.33;;;18.10;31.50;;;;;;4998689;28;20415;-59
2022/04/20 12:19:19;;;;;;;7.20;5.57;;;18.20;32.50;;;;;;4991685;28;20416;-59
2022/04/20 12:21:46;;;;;;;6.60;5.10;;;18.30;32.60;;;;;;5009722;28;20517;-58
2022/04/20 12:24:22;;;;;;;5.90;4.60;;;18.50;32.60;;;;;;5009671;28;20431;-59
2022/04/20 12:26:49;;;;;;;4.57;4.20;;;18.70;31.50;;;;;;4990175;28;20416;-60
2022/04/20 12:29:19;;;;;;;6.03;5.20;;;18.80;32.40;;;;;;5004166;28;20427;-57
2022/04/20 12:31:46;;;;;;;5.60;4.70;;;18.90;31.90;;;;;;5000830;28;20835;-58
2022/04/20 12:34:15;;;;;;;7.63;4.47;;;19.00;31.10;;;;;;4998845;28;20821;-60
2022/04/20 12:37:06;;;;;;;10.00;4.90;;;19.10;30.50;;;;;;4986897;28;20438;-58
2022/04/20 12:39:38;;;;;;;6.43;4.43;;;19.20;30.80;;;;;;5000186;28;20791;-58
2022/04/20 12:42:07;;;;;;;5.30;4.20;;;19.30;31.00;;;;;;5000412;28;20455;-57
2022/04/20 12:44:39;;;;;;;5.03;4.37;;;19.40;31.80;;;;;;5001691;28;20621;-57
2022/04/20 12:47:10;;;;;;;4.50;4.10;;;19.60;30.70;;;;;;5008419;28;20435;-56
2022/04/20 12:49:39;;;;;;;4.70;4.30;;;19.60;31.50;;;;;;4992740;28;20439;-58
2022/04/20 12:52:06;;;;;;;6.67;4.77;;;19.70;31.10;;;;;;5002495;28;20435;-56
2022/04/20 12:54:32;;;;;;;6.10;3.80;;;19.80;31.70;;;;;;4991948;28;21050;-57
2022/04/20 13:02:26;;;;;;;10.53;4.73;;;20.20;30.00;;;;;;4998189;28;21227;-59
2022/04/20 13:04:52;;;;;;;5.20;4.70;;;20.20;29.90;;;;;;5007637;28;20556;-58
2022/04/20 13:07:17;;;;;;;5.60;4.30;;;20.30;30.30;;;;;;5002721;28;20234;-58
2022/04/20 13:09:43;;;;;;;5.60;4.73;;;20.30;29.90;;;;;;5001444;28;20316;-57
2022/04/20 13:12:09;;;;;;;6.90;4.20;;;20.30;28.90;;;;;;5003376;28;20720;-57
2022/04/20 13:14:36;;;;;;;4.77;4.03;;;20.50;29.10;;;;;;4995944;28;20226;-57
2022/04/20 13:17:02;;;;;;;7.13;5.10;;;20.60;28.60;;;;;;4979841;28;20447;-60
2022/04/20 13:19:27;;;;;;;7.80;4.70;;;20.80;28.10;;;;;;4995997;28;20486;-56
2022/04/20 13:21:53;;;;;;;5.13;4.63;;;20.90;27.00;;;;;;4992279;28;20296;-58
2022/04/20 13:29:47;;;;;;;7.30;4.30;;;21.00;29.40;;;;;;5003001;28;20684;-59
2022/04/20 13:32:17;;;;;;;5.33;4.70;;;21.00;29.00;;;;;;4996602;28;21036;-56
2022/04/20 13:34:42;;;;;;;6.43;4.70;;;21.10;28.80;;;;;;5006573;28;20238;-56
2022/04/20 13:37:08;;;;;;;5.27;4.50;;;21.30;28.90;;;;;;4999416;28;20431;-58
2022/04/20 13:39:34;;;;;;;5.13;4.63;;;21.40;28.50;;;;;;5003213;28;20227;-58
2022/04/20 13:41:59;;;;;;;5.77;4.43;;;21.50;28.30;;;;;;5002915;28;20559;-58
2022/04/20 13:44:25;;;;;;;8.97;4.70;;;21.50;28.10;;;;;;5001714;28;20618;-58
2022/04/20 13:46:51;;;;;;;5.13;4.50;;;21.50;28.50;;;;;;5004408;28;20205;-58
2022/04/20 13:49:16;;;;;;;12.73;4.67;;;21.50;27.80;;;;;;4998330;28;20302;-58